Time;durP1;ratioP1;P1;durP2;ratioP2;P2;SDS_P1;SDS_P2;PMS_P1;PMS_P2;Temp;Humidity;BMP_temperature;BMP_pressure;BME280_temperature;BME280_humidity;BME280_pressure;Samples;Min_cycle;Max_cycle;Signal;HPM_P1;HPM_P2
2022/06/25 00:01:25;;;;;;;;;;;;;;;17.37;71.10;98331.59;4824914;29;19936;-76
2022/06/25 00:03:51;;;;;;;;;;;;;;;17.30;71.07;98333.38;4823613;29;19935;-77
2022/06/25 00:06:17;;;;;;;;;;;;;;;17.26;71.45;98343.72;4808243;29;20015;-76
2022/06/25 00:08:44;;;;;;;;;;;;;;;17.27;71.15;98342.72;4823662;29;19933;-77
2022/06/25 00:12:31;;;;;;;;;;;;;;;17.30;71.16;98352.28;4808207;29;19935;-77
2022/06/25 00:13:57;;;;;;;;;;;;;;;17.23;70.93;98350.38;4823553;29;19945;-78
2022/06/25 00:16:22;;;;;;;;;;;;;;;17.13;71.15;98355.22;4793173;29;20308;-77
2022/06/25 00:18:48;;;;;;;;;;;;;;;17.13;71.41;98359.78;4793146;29;19929;-77
2022/06/25 00:21:14;;;;;;;;;;;;;;;17.13;71.01;98368.72;4808321;29;19932;-77
2022/06/25 00:23:39;;;;;;;;;;;;;;;17.12;71.37;98367.06;4808579;29;19929;-77
2022/06/25 00:26:05;;;;;;;;;;;;;;;17.19;71.37;98380.66;4822693;29;20405;-76
2022/06/25 00:28:30;;;;;;;;;;;;;;;17.14;71.50;98386.59;4793049;29;20027;-77
2022/06/25 00:30:56;;;;;;;;;;;;;;;17.32;70.99;98388.06;4824825;29;19929;-78
2022/06/25 00:33:22;;;;;;;;;;;;;;;17.38;70.52;98387.31;4824853;29;19944;-77
2022/06/25 00:35:48;;;;;;;;;;;;;;;17.50;70.32;98385.78;4793376;29;19956;-77
2022/06/25 00:38:13;;;;;;;;;;;;;;;17.52;70.02;98389.13;4807780;29;20042;-77
2022/06/25 00:40:39;;;;;;;;;;;;;;;17.62;69.42;98383.44;4808113;29;19952;-77
2022/06/25 00:43:05;;;;;;;;;;;;;;;17.65;69.54;98378.47;4808088;29;19935;-78
2022/06/25 00:45:31;;;;;;;;;;;;;;;17.53;69.55;98374.63;4808025;29;19928;-76
2022/06/25 00:47:56;;;;;;;;;;;;;;;17.56;69.31;98373.38;4823033;29;19985;-76
2022/06/25 00:50:22;;;;;;;;;;;;;;;17.59;69.37;98373.81;4823383;29;19933;-76
2022/06/25 00:52:52;;;;;;;;;;;;;;;17.68;68.92;98372.69;4823497;29;19928;-76
2022/06/25 00:55:20;;;;;;;;;;;;;;;17.81;69.09;98365.78;4792829;29;19929;-77
2022/06/25 00:57:48;;;;;;;;;;;;;;;17.86;68.86;98374.13;4792932;29;19935;-76
2022/06/25 01:00:20;;;;;;;;;;;;;;;17.82;68.77;98367.44;4792671;29;19936;-77
2022/06/25 01:02:46;;;;;;;;;;;;;;;17.88;68.32;98366.69;4824557;29;20056;-77
2022/06/25 01:05:13;;;;;;;;;;;;;;;17.89;68.21;98362.94;4807984;29;20425;-77
2022/06/25 01:07:39;;;;;;;;;;;;;;;17.94;67.97;98365.88;4792894;29;20405;-77
2022/06/25 01:10:06;;;;;;;;;;;;;;;18.07;67.77;98363.31;4792635;29;19929;-76
2022/06/25 01:12:32;;;;;;;;;;;;;;;18.17;66.95;98366.53;4823092;29;19928;-78
2022/06/25 01:15:04;;;;;;;;;;;;;;;18.28;66.45;98372.44;4792821;29;19936;-77
2022/06/25 01:17:30;;;;;;;;;;;;;;;18.16;66.68;98364.84;4807795;29;19986;-77
2022/06/25 01:19:56;;;;;;;;;;;;;;;18.27;66.14;98365.34;4807937;29;20393;-77
2022/06/25 01:22:21;;;;;;;;;;;;;;;18.24;66.18;98357.63;4807690;29;20020;-78
2022/06/25 01:24:48;;;;;;;;;;;;;;;18.13;66.44;98365.25;4792886;29;20066;-77
2022/06/25 01:27:14;;;;;;;;;;;;;;;18.25;66.55;98356.59;4824036;29;20401;-76
2022/06/25 01:29:40;;;;;;;;;;;;;;;18.25;66.24;98359.31;4792894;29;19929;-77
2022/06/25 01:32:07;;;;;;;;;;;;;;;18.33;66.29;98353.75;4792748;29;19933;-77
2022/06/25 01:34:32;;;;;;;;;;;;;;;18.37;65.95;98338.81;4822871;29;20320;-77
2022/06/25 01:37:02;;;;;;;;;;;;;;;18.23;65.81;98354.09;4808446;29;20312;-77
2022/06/25 01:39:27;;;;;;;;;;;;;;;18.25;65.61;98351.19;4810612;29;19929;-77
2022/06/25 01:41:54;;;;;;;;;;;;;;;18.33;65.75;98367.28;4810905;29;19935;-76
2022/06/25 01:44:20;;;;;;;;;;;;;;;18.31;65.61;98362.06;4810880;29;19929;-77
2022/06/25 01:46:47;;;;;;;;;;;;;;;18.39;65.70;98371.88;4810857;29;19935;-77
2022/06/25 01:49:14;;;;;;;;;;;;;;;18.42;65.57;98388.56;4795498;29;20031;-78
2022/06/25 01:51:42;;;;;;;;;;;;;;;18.50;65.16;98393.00;4810589;29;19928;-76
2022/06/25 01:54:07;;;;;;;;;;;;;;;18.54;64.84;98405.13;4810112;29;20012;-77
2022/06/25 01:56:33;;;;;;;;;;;;;;;18.60;65.08;98407.03;4810277;29;19929;-77
2022/06/25 01:58:59;;;;;;;;;;;;;;;18.47;64.83;98404.25;4825540;29;20353;-77
2022/06/25 02:01:25;;;;;;;;;;;;;;;18.47;64.71;98406.09;4795561;29;19964;-77
2022/06/25 02:03:51;;;;;;;;;;;;;;;18.27;65.13;98409.47;4810279;29;19929;-77
2022/06/25 02:06:17;;;;;;;;;;;;;;;18.23;65.66;98407.34;4826443;29;19936;-77
2022/06/25 02:08:43;;;;;;;;;;;;;;;18.27;65.07;98414.03;4810057;29;19928;-78
2022/06/25 02:11:10;;;;;;;;;;;;;;;18.29;65.41;98425.53;4826432;29;19952;-77
2022/06/25 02:13:37;;;;;;;;;;;;;;;18.26;65.23;98423.19;4795342;29;19928;-76
2022/06/25 02:16:04;;;;;;;;;;;;;;;18.33;65.52;98430.34;4825586;29;19945;-77
2022/06/25 02:18:34;;;;;;;;;;;;;;;18.44;65.57;98421.69;4810438;29;19928;-77
2022/06/25 02:21:00;;;;;;;;;;;;;;;18.57;64.52;98414.72;4825233;29;19935;-77
2022/06/25 02:23:26;;;;;;;;;;;;;;;18.67;64.69;98418.75;4794940;29;20413;-76
2022/06/25 02:25:56;;;;;;;;;;;;;;;18.67;64.66;98402.50;4826382;29;19935;-77
2022/06/25 02:28:22;;;;;;;;;;;;;;;18.71;64.64;98402.97;4826115;29;20382;-77
2022/06/25 02:30:48;;;;;;;;;;;;;;;18.66;64.44;98398.13;4826220;29;19997;-77
2022/06/25 02:33:15;;;;;;;;;;;;;;;18.82;64.65;98386.19;4809951;29;19976;-77
2022/06/25 02:35:41;;;;;;;;;;;;;;;18.97;64.14;98399.59;4824943;29;20300;-76
2022/06/25 02:38:09;;;;;;;;;;;;;;;19.00;63.93;98396.50;4794572;29;19929;-78
2022/06/25 02:40:35;;;;;;;;;;;;;;;19.09;64.01;98408.84;4809557;29;19928;-77
2022/06/25 02:43:01;;;;;;;;;;;;;;;19.30;63.42;98404.38;4794976;29;19929;-77
2022/06/25 02:45:30;;;;;;;;;;;;;;;19.17;63.68;98397.81;4809684;29;19986;-79
2022/06/25 02:47:56;;;;;;;;;;;;;;;19.25;63.18;98396.00;4808593;29;19928;-77
2022/06/25 02:50:23;;;;;;;;;;;;;;;19.36;63.14;98392.72;4794305;29;19928;-78
2022/06/25 02:52:49;;;;;;;;;;;;;;;19.46;62.83;98390.47;4824443;29;20393;-79
2022/06/25 02:55:17;;;;;;;;;;;;;;;19.42;63.21;98391.91;4789266;29;19929;-78
2022/06/25 03:00:38;;;;;;;;;;;;;;;19.34;63.71;98400.22;4773168;30;20037;-78
2022/06/25 03:03:04;;;;;;;;;;;;;;;19.35;63.77;98413.56;4788265;30;20023;-77
2022/06/25 03:05:30;;;;;;;;;;;;;;;19.34;63.62;98417.31;4788252;30;19976;-76
2022/06/25 03:07:55;;;;;;;;;;;;;;;19.53;63.45;98415.72;4773409;30;20401;-80
2022/06/25 03:10:21;;;;;;;;;;;;;;;19.73;62.40;98420.41;4788355;30;19979;-78
2022/06/25 03:12:48;;;;;;;;;;;;;;;19.75;61.98;98421.03;4803300;29;19930;-78
2022/06/25 03:15:21;;;;;;;;;;;;;;;19.99;61.69;98420.47;4787573;30;19929;-77
2022/06/25 03:17:47;;;;;;;;;;;;;;;20.14;61.28;98423.81;4789165;29;20079;-78
2022/06/25 03:20:31;;;;;;;;;;;;;;;20.29;60.59;98425.53;4788372;30;19930;-78
2022/06/25 03:23:00;;;;;;;;;;;;;;;20.40;60.16;98427.63;4803193;29;20344;-79
2022/06/25 03:25:25;;;;;;;;;;;;;;;20.56;59.38;98437.25;4788000;29;19929;-77
2022/06/25 03:27:51;;;;;;;;;;;;;;;20.56;59.33;98434.53;4802920;29;19929;-77
2022/06/25 03:30:17;;;;;;;;;;;;;;;20.61;59.90;98441.03;4772872;30;20064;-76
2022/06/25 03:32:44;;;;;;;;;;;;;;;20.80;59.30;98446.66;4787683;30;20447;-76
2022/06/25 03:35:27;;;;;;;;;;;;;;;20.75;58.25;98446.44;4788983;30;19935;-77
2022/06/25 03:38:10;;;;;;;;;;;;;;;20.73;58.98;98438.50;4787720;30;19936;-77
2022/06/25 03:40:36;;;;;;;;;;;;;;;20.75;58.95;98447.25;4802580;29;19936;-77
2022/06/25 03:43:03;;;;;;;;;;;;;;;20.88;58.58;98435.56;4802698;29;20465;-77
2022/06/25 03:45:33;;;;;;;;;;;;;;;21.01;58.79;98435.53;4787631;29;19933;-78
2022/06/25 03:47:58;;;;;;;;;;;;;;;21.06;58.04;98426.75;4787705;29;20294;-77
2022/06/25 03:50:24;;;;;;;;;;;;;;;20.97;58.59;98423.41;4787417;30;19930;-78
2022/06/25 03:52:50;;;;;;;;;;;;;;;20.96;58.30;98429.09;4787292;30;19937;-77
2022/06/25 03:55:16;;;;;;;;;;;;;;;20.84;58.15;98423.47;4802283;29;19937;-76
2022/06/25 03:57:42;;;;;;;;;;;;;;;20.96;58.01;98421.75;4801828;29;20330;-78
2022/06/25 04:00:34;;;;;;;;;;;;;;;20.90;57.68;98441.63;4800024;29;20434;-78
2022/06/25 04:03:00;;;;;;;;;;;;;;;20.81;58.48;98426.59;4805249;29;19929;-77
2022/06/25 04:05:29;;;;;;;;;;;;;;;20.81;58.55;98434.75;4820289;29;19929;-78
2022/06/25 04:08:16;;;;;;;;;;;;;;;20.96;57.99;98421.75;4787441;30;20032;-77
2022/06/25 04:10:42;;;;;;;;;;;;;;;20.98;57.54;98438.66;4788662;29;20039;-78
2022/06/25 04:13:08;;;;;;;;;;;;;;;21.01;57.51;98432.81;4802470;29;19930;-78
2022/06/25 04:15:37;;;;;;;;;;;;;;;21.14;56.70;98444.69;4787070;30;20390;-78
2022/06/25 04:18:03;;;;;;;;;;;;;;;21.15;56.34;98424.66;4801955;29;19948;-79
2022/06/25 04:20:30;;;;;;;;;;;;;;;21.25;56.65;98441.31;4786997;30;19955;-78
2022/06/25 04:22:56;;;;;;;;;;;;;;;21.32;56.10;98437.53;4788525;29;19929;-77
2022/06/25 04:25:22;;;;;;;;;;;;;;;21.25;55.53;98447.63;4786959;30;19980;-78
2022/06/25 04:30:33;;;;;;;;;;;;;;;21.38;55.35;98438.63;4801982;29;19974;-79
2022/06/25 04:33:00;;;;;;;;;;;;;;;21.45;55.64;98444.88;4801993;29;20006;-81
2022/06/25 04:35:31;;;;;;;;;;;;;;;;;;4802285;29;19930;-82
2022/06/25 04:38:00;;;;;;;;;;;;;;;21.50;54.91;98449.66;4772342;30;19929;-82
2022/06/25 04:40:29;;;;;;;;;;;;;;;21.63;54.48;98459.66;4803958;29;19937;-86
2022/06/25 04:42:55;;;;;;;;;;;;;;;21.78;54.52;98452.06;4787355;30;19929;-79
2022/06/25 04:45:21;;;;;;;;;;;;;;;21.95;54.09;98453.22;4801730;29;20683;-78
2022/06/25 04:48:07;;;;;;;;;;;;;;;22.09;53.67;98453.97;4786613;30;19936;-79
2022/06/25 04:50:59;;;;;;;;;;;;;;;22.19;53.15;98456.25;4786570;30;19929;-79
2022/06/25 04:53:25;;;;;;;;;;;;;;;22.28;52.84;98457.66;4801385;29;19937;-78
2022/06/25 04:55:51;;;;;;;;;;;;;;;22.33;53.05;98460.56;4786849;30;19969;-79
2022/06/25 04:58:17;;;;;;;;;;;;;;;22.32;52.30;98458.06;4786455;30;20018;-79
2022/06/25 05:01:05;;;;;;;;;;;;;;;22.49;52.27;98461.91;4787320;30;19929;-78
2022/06/25 05:03:31;;;;;;;;;;;;;;;22.53;52.28;98460.44;4786884;30;20310;-80
2022/06/25 05:06:09;;;;;;;;;;;;;;;22.45;52.14;98458.78;4800779;29;19934;-79
2022/06/25 05:08:35;;;;;;;;;;;;;;;22.63;52.31;98466.19;4801953;29;20382;-86
2022/06/25 05:11:01;;;;;;;;;;;;;;;22.47;51.20;98470.28;4772084;30;19968;-81
2022/06/25 05:13:27;;;;;;;;;;;;;;;22.15;51.96;98457.72;4804981;29;19936;-79
2022/06/25 05:15:53;;;;;;;;;;;;;;;22.09;52.26;98455.88;4789996;30;20032;-80
2022/06/25 05:18:19;;;;;;;;;;;;;;;22.22;52.24;98455.81;4789660;30;20408;-80
2022/06/25 05:20:45;;;;;;;;;;;;;;;22.26;52.19;98448.88;4790193;30;19929;-81
2022/06/25 05:23:12;;;;;;;;;;;;;;;22.39;52.34;98447.97;4789716;30;19929;-79
2022/06/25 05:25:38;;;;;;;;;;;;;;;22.56;52.09;98446.34;4789831;30;19929;-80
2022/06/25 05:28:04;;;;;;;;;;;;;;;22.64;52.07;98445.22;4804773;29;19929;-81
2022/06/25 05:30:31;;;;;;;;;;;;;;;22.81;51.29;98449.06;4790128;30;19929;-79
2022/06/25 05:32:57;;;;;;;;;;;;;;;22.84;51.07;98440.47;4792557;30;19934;-81
2022/06/25 05:35:24;;;;;;;;;;;;;;;22.79;51.18;98443.84;4804817;29;19933;-76
2022/06/25 05:37:49;;;;;;;;;;;;;;;22.84;50.86;98445.06;4789713;30;19929;-80
2022/06/25 05:40:16;;;;;;;;;;;;;;;22.76;51.26;98448.91;4804534;29;20336;-80
2022/06/25 05:42:41;;;;;;;;;;;;;;;22.81;51.64;98445.53;4774739;30;19985;-78
2022/06/25 05:45:07;;;;;;;;;;;;;;;22.83;51.56;98448.84;4789824;30;19929;-79
2022/06/25 05:47:33;;;;;;;;;;;;;;;22.96;51.88;98455.03;4789495;30;19933;-78
2022/06/25 05:49:59;;;;;;;;;;;;;;;23.01;50.86;98447.00;4804602;29;19936;-77
2022/06/25 05:52:25;;;;;;;;;;;;;;;23.02;50.66;98443.25;4789341;30;20369;-77
2022/06/25 05:54:50;;;;;;;;;;;;;;;23.10;51.23;98449.47;4804173;29;19930;-78
2022/06/25 05:57:16;;;;;;;;;;;;;;;23.26;51.00;98459.78;4790842;29;20341;-79
2022/06/25 05:59:41;;;;;;;;;;;;;;;23.28;50.87;98457.66;4789391;30;19929;-78
2022/06/25 06:02:07;;;;;;;;;;;;;;;23.28;50.37;98457.66;4789216;30;19930;-79
2022/06/25 06:04:33;;;;;;;;;;;;;;;23.39;49.72;98451.44;4790467;30;19933;-78
2022/06/25 06:07:00;;;;;;;;;;;;;;;23.34;49.63;98454.03;4789045;30;19937;-79
2022/06/25 06:09:29;;;;;;;;;;;;;;;23.58;49.31;98465.06;4789086;30;19929;-78
2022/06/25 06:11:55;;;;;;;;;;;;;;;23.56;49.27;98443.50;4788941;30;19930;-79
2022/06/25 06:14:22;;;;;;;;;;;;;;;23.58;49.32;98459.63;4804118;29;19930;-79
2022/06/25 06:16:47;;;;;;;;;;;;;;;23.59;49.11;98448.50;4788820;30;19929;-78
2022/06/25 06:19:13;;;;;;;;;;;;;;;23.66;49.15;98453.88;4789777;29;19953;-78
2022/06/25 06:21:39;;;;;;;;;;;;;;;23.65;49.07;98463.09;4790400;29;20279;-79
2022/06/25 06:24:05;;;;;;;;;;;;;;;23.67;49.11;98456.41;4788981;29;19983;-77
2022/06/25 06:26:30;;;;;;;;;;;;;;;23.76;49.04;98465.09;4803997;29;19965;-79
2022/06/25 06:28:56;;;;;;;;;;;;;;;23.86;48.31;98453.66;4788843;29;19933;-78
2022/06/25 06:31:21;;;;;;;;;;;;;;;23.97;48.19;98455.59;4803664;29;20028;-78
2022/06/25 06:33:47;;;;;;;;;;;;;;;24.00;48.18;98460.59;4788850;29;20420;-77
2022/06/25 06:36:13;;;;;;;;;;;;;;;24.28;48.70;98462.72;4788576;30;19933;-78
2022/06/25 06:38:39;;;;;;;;;;;;;;;24.30;47.07;98466.06;4803801;29;20402;-78
2022/06/25 06:41:05;;;;;;;;;;;;;;;24.18;47.15;98467.88;4803583;29;19929;-78
2022/06/25 06:43:30;;;;;;;;;;;;;;;24.08;47.15;98479.38;4788388;30;20300;-78
2022/06/25 06:45:56;;;;;;;;;;;;;;;24.23;47.53;98465.31;4803175;29;19933;-79
2022/06/25 06:48:22;;;;;;;;;;;;;;;24.37;46.87;98466.78;4788464;30;20453;-79
2022/06/25 06:50:48;;;;;;;;;;;;;;;24.53;46.87;98464.50;4788894;30;19936;-79
2022/06/25 06:53:14;;;;;;;;;;;;;;;24.74;45.98;98472.09;4806453;29;20321;-78
2022/06/25 06:55:40;;;;;;;;;;;;;;;24.88;44.40;98467.25;4824785;29;20415;-78
2022/06/25 06:58:05;;;;;;;;;;;;;;;24.68;44.51;98467.59;4824432;29;19929;-78
2022/06/25 07:00:31;;;;;;;;;;;;;;;24.74;44.26;98477.56;4808885;29;19929;-80
2022/06/25 07:02:56;;;;;;;;;;;;;;;24.87;44.05;98474.63;4825958;29;19929;-78
2022/06/25 07:05:22;;;;;;;;;;;;;;;24.84;43.25;98466.91;4809304;29;20035;-79
2022/06/25 07:07:48;;;;;;;;;;;;;;;24.78;42.51;98462.38;4824302;29;20011;-78
2022/06/25 07:10:14;;;;;;;;;;;;;;;24.75;42.61;98478.41;4809171;29;19936;-80
2022/06/25 07:12:40;;;;;;;;;;;;;;;24.88;41.84;98470.00;4825307;29;19979;-80
2022/06/25 07:15:06;;;;;;;;;;;;;;;24.78;41.82;98473.28;4808798;29;20281;-80
2022/06/25 07:17:31;;;;;;;;;;;;;;;24.88;41.41;98473.56;4825450;29;19928;-78
2022/06/25 07:19:58;;;;;;;;;;;;;;;25.10;41.41;98476.56;4823985;29;19929;-78
2022/06/25 07:22:23;;;;;;;;;;;;;;;25.21;40.09;98477.66;4824829;29;19935;-79
2022/06/25 07:24:51;;;;;;;;;;;;;;;25.23;39.55;98470.03;4823963;29;19929;-78
2022/06/25 07:27:17;;;;;;;;;;;;;;;25.34;38.91;98471.09;4808682;29;19935;-79
2022/06/25 07:29:43;;;;;;;;;;;;;;;25.30;37.90;98486.31;4808636;29;20313;-79
2022/06/25 07:32:10;;;;;;;;;;;;;;;25.50;37.47;98474.97;4823845;29;19939;-79
2022/06/25 07:34:36;;;;;;;;;;;;;;;25.60;38.48;98476.03;4823693;29;19929;-78
2022/06/25 07:37:02;;;;;;;;;;;;;;;25.81;37.30;98484.72;4808867;29;19951;-76
2022/06/25 07:39:27;;;;;;;;;;;;;;;25.71;37.14;98477.09;4808879;29;19928;-79
2022/06/25 07:41:53;;;;;;;;;;;;;;;25.81;36.16;98491.03;4808564;29;19977;-77
2022/06/25 07:44:19;;;;;;;;;;;;;;;25.95;35.57;98477.03;4808595;29;20444;-78
2022/06/25 07:46:45;;;;;;;;;;;;;;;25.82;35.53;98479.00;4793652;29;19936;-78
2022/06/25 07:49:11;;;;;;;;;;;;;;;25.71;36.42;98488.03;4823732;29;19929;-78
2022/06/25 07:54:21;;;;;;;;;;;;;;;25.94;37.88;98481.69;4807898;29;20346;-78
2022/06/25 07:56:46;;;;;;;;;;;;;;;26.05;36.99;98482.72;4807791;29;19929;-79
2022/06/25 07:59:12;;;;;;;;;;;;;;;25.98;35.64;98480.13;4823867;29;19928;-78
2022/06/25 08:01:38;;;;;;;;;;;;;;;26.09;35.55;98486.66;4822384;29;19985;-79
2022/06/25 08:04:04;;;;;;;;;;;;;;;26.07;35.50;98486.06;4822789;29;19967;-79
2022/06/25 08:06:30;;;;;;;;;;;;;;;25.97;35.66;98492.16;4807292;29;19981;-79
2022/06/25 08:08:56;;;;;;;;;;;;;;;25.89;35.98;98479.69;4822465;29;19929;-78
2022/06/25 08:11:22;;;;;;;;;;;;;;;26.01;36.06;98489.78;4823917;29;20157;-78
2022/06/25 08:13:48;;;;;;;;;;;;;;;26.11;34.47;98490.81;4838563;29;20043;-79
2022/06/25 08:16:14;;;;;;;;;;;;;;;26.28;35.12;98482.63;4825027;29;19991;-78
2022/06/25 08:18:39;;;;;;;;;;;;;;;26.46;35.40;98481.63;4841672;29;19928;-79
2022/06/25 08:21:05;;;;;;;;;;;;;;;26.57;35.22;98472.50;4840629;29;19928;-78
2022/06/25 08:23:31;;;;;;;;;;;;;;;26.65;35.55;98479.50;4825314;29;20298;-77
2022/06/25 08:25:57;;;;;;;;;;;;;;;26.88;36.09;98470.28;4841590;29;20007;-79
2022/06/25 08:28:24;;;;;;;;;;;;;;;27.14;35.12;98474.28;4825411;29;20030;-77
2022/06/25 08:30:49;;;;;;;;;;;;;;;27.10;34.89;98478.56;4810280;29;19928;-78
2022/06/25 08:33:15;;;;;;;;;;;;;;;27.40;34.68;98482.88;4795022;29;19932;-79
2022/06/25 08:35:41;;;;;;;;;;;;;;;27.50;34.21;98494.03;4809959;29;20026;-80
2022/06/25 08:38:07;;;;;;;;;;;;;;;27.19;33.59;98476.25;4841492;29;19928;-78
2022/06/25 08:40:32;;;;;;;;;;;;;;;27.24;33.92;98484.59;4841318;29;20408;-79
2022/06/25 08:42:58;;;;;;;;;;;;;;;27.02;33.56;98479.81;4810203;29;20372;-77
2022/06/25 08:45:24;;;;;;;;;;;;;;;27.11;33.82;98491.22;4825482;29;19942;-76
2022/06/25 08:47:51;;;;;;;;;;;;;;;26.94;32.21;98490.41;4827668;29;19929;-79
2022/06/25 08:50:21;;;;;;;;;;;;;;;27.01;32.72;98474.59;4828026;29;19928;-80
2022/06/25 08:52:50;;;;;;;;;;;;;;;27.16;32.90;98483.09;4844440;29;19952;-81
2022/06/25 08:55:28;;;;;;;;;;;;;;;27.14;33.18;98488.00;4749493;29;1935703;-80
2022/06/25 08:57:55;;;;;;;;;;;;;;;27.19;32.98;98477.09;4829441;29;19993;-78
2022/06/25 09:00:20;;;;;;;;;;;;;;;27.16;33.75;98498.72;4845920;29;19971;-78
2022/06/25 09:02:46;;;;;;;;;;;;;;;27.35;32.81;98492.72;4814249;29;20344;-78
2022/06/25 09:05:12;;;;;;;;;;;;;;;27.57;32.56;98494.66;4845725;29;19936;-79
2022/06/25 09:07:38;;;;;;;;;;;;;;;27.34;33.12;98496.53;4845662;29;19928;-78
2022/06/25 09:10:03;;;;;;;;;;;;;;;27.35;33.53;98497.38;4813669;29;20449;-78
2022/06/25 09:12:29;;;;;;;;;;;;;;;27.67;33.24;98491.22;4813917;29;20293;-78
2022/06/25 09:14:55;;;;;;;;;;;;;;;27.86;33.51;98486.25;4829496;29;19977;-78
2022/06/25 09:17:21;;;;;;;;;;;;;;;28.08;33.10;98506.31;4814114;29;19984;-79
2022/06/25 09:19:49;;;;;;;;;;;;;;;28.14;32.84;98498.97;4844308;29;19928;-78
2022/06/25 09:22:22;;;;;;;;;;;;;;;27.81;32.96;98501.59;4813124;29;19980;-77
2022/06/25 09:24:49;;;;;;;;;;;;;;;27.54;34.17;98508.91;4813369;29;20443;-77
2022/06/25 09:27:21;;;;;;;;;;;;;;;27.73;33.65;98499.28;4828199;29;19940;-78
2022/06/25 09:29:50;;;;;;;;;;;;;;;27.99;33.29;98491.38;4813328;29;19965;-78
2022/06/25 09:32:17;;;;;;;;;;;;;;;27.99;32.08;98502.38;4828506;29;19933;-78
2022/06/25 09:34:43;;;;;;;;;;;;;;;28.02;32.45;98496.34;4827568;29;19933;-78
2022/06/25 09:37:19;;;;;;;;;;;;;;;28.14;32.41;98488.81;4813173;29;20484;-79
2022/06/25 09:39:46;;;;;;;;;;;;;;;28.29;32.49;98485.41;4809116;29;19928;-79
2022/06/25 09:42:19;;;;;;;;;;;;;;;28.56;32.24;98493.66;4795448;29;19935;-79
2022/06/25 09:44:46;;;;;;;;;;;;;;;29.02;31.27;98483.91;4810217;29;19933;-79
2022/06/25 09:47:13;;;;;;;;;;;;;;;29.15;31.48;98468.03;4826401;29;19928;-82
2022/06/25 09:49:39;;;;;;;;;;;;;;;29.17;31.77;98496.97;4824442;29;20371;-81
2022/06/25 09:52:05;;;;;;;;;;;;;;;29.19;31.26;98500.28;4809903;29;19964;-88
2022/06/25 09:54:31;;;;;;;;;;;;;;;29.05;31.11;98493.56;4810283;29;20012;-82
2022/06/25 09:56:58;;;;;;;;;;;;;;;29.07;31.92;98488.63;4826212;29;19929;-86
2022/06/25 09:59:24;;;;;;;;;;;;;;;29.56;31.30;98499.41;4825951;29;20293;-82
2022/06/25 10:01:50;;;;;;;;;;;;;;;30.07;30.79;98485.91;4825988;29;20030;-81
2022/06/25 10:04:16;;;;;;;;;;;;;;;30.51;30.83;98487.44;4809475;29;20032;-82
2022/06/25 10:06:42;;;;;;;;;;;;;;;31.01;29.80;98497.69;4779737;29;20385;-80
2022/06/25 10:09:09;;;;;;;;;;;;;;;30.96;29.47;98487.47;4810024;29;19932;-80
2022/06/25 10:11:35;;;;;;;;;;;;;;;31.24;29.99;98488.00;4780282;29;19935;-80
2022/06/25 10:14:00;;;;;;;;;;;;;;;31.13;29.13;98487.19;4810424;29;19928;-83
2022/06/25 10:16:27;;;;;;;;;;;;;;;31.16;29.05;98500.44;4826155;29;20011;-79
2022/06/25 10:18:53;;;;;;;;;;;;;;;31.51;29.26;98487.69;4810017;29;20077;-80
2022/06/25 10:21:19;;;;;;;;;;;;;;;31.45;28.23;98480.53;4828622;29;20377;-80
2022/06/25 10:23:45;;;;;;;;;;;;;;;31.82;28.34;98495.88;4820870;29;19929;-83
2022/06/25 10:26:12;;;;;;;;;;;;;;;31.52;28.36;98492.13;4817018;29;20009;-84
2022/06/25 10:28:37;;;;;;;;;;;;;;;31.29;29.17;98500.97;4812578;29;19929;-85
2022/06/25 10:31:21;;;;;;;;;;;;;;;30.83;29.55;98495.47;4819546;29;19952;-83
2022/06/25 10:33:55;;;;;;;;;;;;;;;31.16;28.42;98514.22;4843472;29;20309;-85
2022/06/25 10:36:39;;;;;;;;;;;;;;;31.16;28.61;98494.09;4833460;29;19933;-83
2022/06/25 10:39:24;;;;;;;;;;;;;;;31.74;28.67;98493.69;4849046;29;19935;-83
2022/06/25 10:44:53;;;;;;;;;;;;;;;31.43;28.59;98488.25;4819817;29;19932;-83
2022/06/25 10:47:18;;;;;;;;;;;;;;;31.89;27.50;98486.19;4835010;29;19933;-86
2022/06/25 10:49:44;;;;;;;;;;;;;;;32.14;27.21;98484.44;4818942;29;20067;-85
2022/06/25 10:52:15;;;;;;;;;;;;;;;32.54;26.88;98496.41;4835705;29;19928;-83
2022/06/25 10:54:45;;;;;;;;;;;;;;;33.40;26.46;98505.97;4806768;29;19928;-83
2022/06/25 10:57:10;;;;;;;;;;;;;;;33.17;24.74;98504.78;4829357;29;19935;-83
2022/06/25 10:59:38;;;;;;;;;;;;;;;32.53;24.88;98503.03;4821865;29;20313;-85
2022/06/25 11:02:05;;;;;;;;;;;;;;;32.43;25.69;98505.91;4847618;29;19929;-82
2022/06/25 11:04:31;;;;;;;;;;;;;;;33.20;25.05;98492.31;4834593;29;20015;-83
2022/06/25 11:07:07;;;;;;;;;;;;;;;33.35;25.72;98503.22;4820073;29;20001;-82
2022/06/25 11:09:33;;;;;;;;;;;;;;;33.58;25.58;98509.94;4842528;29;20401;-83
2022/06/25 11:11:59;;;;;;;;;;;;;;;33.67;25.27;98515.69;4806733;29;19929;-84
2022/06/25 11:14:25;;;;;;;;;;;;;;;33.06;25.50;98514.28;4847958;29;20005;-84
2022/06/25 11:16:52;;;;;;;;;;;;;;;32.23;27.16;98520.63;4834452;29;20308;-83
2022/06/25 11:19:19;;;;;;;;;;;;;;;33.02;26.65;98519.59;4832364;29;19936;-83
2022/06/25 11:21:45;;;;;;;;;;;;;;;32.84;26.32;98523.03;4835076;29;19935;-83
2022/06/25 11:24:14;;;;;;;;;;;;;;;32.47;26.96;98518.88;4834630;29;19928;-83
2022/06/25 11:29:26;;;;;;;;;;;;;;;31.60;28.04;98532.97;4835332;29;19929;-83
2022/06/25 11:31:53;;;;;;;;;;;;;;;32.42;26.72;98516.09;4837192;29;19997;-83
2022/06/25 11:34:19;;;;;;;;;;;;;;;33.04;25.41;98524.84;4819401;29;19933;-85
2022/06/25 11:36:54;;;;;;;;;;;;;;;32.50;26.18;98517.44;4830982;29;19964;-84
2022/06/25 11:39:22;;;;;;;;;;;;;;;31.88;26.34;98537.06;4855122;29;19928;-83
2022/06/25 11:41:49;;;;;;;;;;;;;;;31.59;26.29;98544.28;4840554;29;19912;-83
2022/06/25 11:44:15;;;;;;;;;;;;;;;31.51;26.19;98522.78;4834508;29;20313;-86
2022/06/25 11:46:41;;;;;;;;;;;;;;;31.73;26.24;98525.22;4794014;29;19928;-81
2022/06/25 11:49:06;;;;;;;;;;;;;;;31.84;26.64;98516.59;4824838;29;19935;-86
2022/06/25 11:51:32;;;;;;;;;;;;;;;32.17;25.87;98515.13;4796024;29;19936;-88
2022/06/25 11:54:03;;;;;;;;;;;;;;;32.01;25.98;98510.78;4824252;29;19978;-86
2022/06/25 11:56:29;;;;;;;;;;;;;;;32.61;25.91;98517.13;4829235;29;19936;-88
2022/06/25 11:58:55;;;;;;;;;;;;;;;33.60;24.69;98507.72;4827160;29;19929;-88
2022/06/25 12:01:26;;;;;;;;;;;;;;;34.35;23.90;98506.28;4827781;29;19928;-88
2022/06/25 12:03:52;;;;;;;;;;;;;;;34.54;23.88;98512.69;4813952;29;19943;-84
2022/06/25 12:06:17;;;;;;;;;;;;;;;34.98;23.19;98505.88;4822413;29;20027;-88
2022/06/25 12:08:43;;;;;;;;;;;;;;;34.28;24.25;98506.63;4842366;29;19932;-89
2022/06/25 12:11:09;;;;;;;;;;;;;;;34.59;24.45;98506.22;4847637;29;20349;-90
2022/06/25 12:13:35;;;;;;;;;;;;;;;35.33;23.84;98498.91;4842999;29;20452;-87
2022/06/25 12:16:02;;;;;;;;;;;;;;;35.99;23.00;98489.31;4842982;29;19928;-87
2022/06/25 12:18:34;;;;;;;;;;;;;;;35.43;22.97;98501.50;4836392;29;19933;-89
2022/06/25 12:21:00;;;;;;;;;;;;;;;35.91;23.08;98476.09;4844196;29;19936;-92
2022/06/25 12:23:26;;;;;;;;;;;;;;;36.70;22.68;98513.94;4822029;29;19929;-91
2022/06/25 12:25:52;;;;;;;;;;;;;;;36.69;22.35;98509.50;4834074;29;19928;-89
2022/06/25 12:28:33;;;;;;;;;;;;;;;36.42;21.92;98518.75;4847380;29;19928;-93
2022/06/25 12:31:07;;;;;;;;;;;;;;;35.99;22.61;98496.84;4829765;29;19928;-91
2022/06/25 12:33:33;;;;;;;;;;;;;;;36.97;22.17;98503.84;4843053;29;20417;-91
2022/06/25 12:35:58;;;;;;;;;;;;;;;36.84;21.72;98509.13;4813541;29;19928;-92
2022/06/25 12:38:24;;;;;;;;;;;;;;;35.43;22.79;98515.41;4814132;29;20011;-91
2022/06/25 12:40:51;;;;;;;;;;;;;;;34.69;23.11;98504.13;4828514;29;19973;-91
2022/06/25 12:43:17;;;;;;;;;;;;;;;34.98;23.13;98505.88;4833982;29;19928;-90
2022/06/25 12:45:44;;;;;;;;;;;;;;;35.74;22.79;98500.94;4854350;29;20070;-93
2022/06/25 12:48:11;;;;;;;;;;;;;;;35.11;22.61;98501.53;4798529;29;20107;-90
2022/06/25 12:50:37;;;;;;;;;;;;;;;34.81;23.34;98503.66;4829371;29;20010;-94
2022/06/25 12:53:10;;;;;;;;;;;;;;;34.67;23.62;98497.22;4815102;29;19939;-90
2022/06/25 12:55:37;;;;;;;;;;;;;;;34.61;23.92;98498.44;4835269;29;19935;-91
2022/06/25 12:58:04;;;;;;;;;;;;;;;35.54;22.96;98504.94;4833802;29;19984;-93
2022/06/25 13:00:30;;;;;;;;;;;;;;;36.22;22.39;98493.00;4846134;29;19928;-87
2022/06/25 13:02:56;;;;;;;;;;;;;;;36.20;21.64;98494.47;4844878;29;20315;-89